Concord, NC (28025)

9:08 AM EST on March 04, 2015 (GMT -0500)
Poplar Tent | Change Station
CLOSE
Current Station
Personal Weather Station
Location: Concord, NC
Elevation: 715 ft
Nearby Weather Stations
Active Advisory: Dense Fog Advisory

Elev 715 ft 35.40 °N, 80.63 °W | Updated 1 second ago

Fog
Fog
50.3 °F
Feels Like 50.3 °F
N
0.0
Wind Variable Wind from West
Gusts 8.0 mph

Today
High -- | Low -- °F
--% Chance of Precip.
Yesterday
High -- | Low -- °F
Precip. -- in
6:48 AM 6:20 PM
Waxing Gibbous, 99% visible
Pressure 30.05 in
Visibility 1.5 miles
Clouds Overcast 300 ft
Dew Point 50 °F
Humidity 100%
Rainfall 0.00 in
Snow Depth Not available.
UV 1 out of 12
Pollen 7.70 out of 12
Air Quality Not available.
Flu Activity Not available.
METAR KJQF 041350Z 20007KT 1 1/2SM BR OVC003 11/11 A3005

More Conditions Fewer Conditions

Pressure 30.05 in
Visibility 1.5 miles
Clouds Overcast 300 ft
Dew Point 50 °F
Humidity 100%
Rainfall 0.00 in
Snow Depth Not available.
UV 1 out of 12
Pollen 7.70 out of 12
Air Quality Not available.
Flu Activity Not available.
METAR KJQF 041350Z 20007KT 1 1/2SM BR OVC003 11/11 A3005

More Conditions Fewer Conditions

10-Day Weather Forecast

Almanac

Astronomy

Mar. 04, 2015 Rise Set
Actual Time
Civil Twilight
Nautical Twilight
Astronomical Twilight
Moon
Length of Visible Light
Length of Day
Tomorrow will be .
, % of the Moon is Illuminated

Today's Extremes

State Highs State Lows

Community

WunderPhotos

Upload Photos

1,802,456 photos uploaded!

WunderBlogs® & News

Nearby

Air Quality

  Air Quality AQ Index Pollutant
Not available.

Snow Depth

Station Depth Elevation

Earthquake Activity

City Distance Mag. Time & Date
Minimum magnitude displayed is 2.5.

Coastal Water Temperatures

Place Temperature

Nearby Weather Stations

Dense Fog Advisory
Statement as of 6:52 AM EST on March 04, 2015

... Dense fog advisory remains in effect until 10 am EST this
morning...

* locations... the Piedmont and foothills of the Carolinas and
northeast Georgia.

* Visibility... one quarter mile or less at times.

* Impacts... dense fog will lower visibility to the Point of
making driving conditions hazardous.

Precautionary/preparedness actions...

A dense fog advisory means visibilities will frequently be
reduced to less than one quarter mile. If driving... slow down...
use your headlights... and leave plenty of distance ahead of you.


Lane